Time;durP1;ratioP1;P1;durP2;ratioP2;P2;SDS_P1;SDS_P2;PMS_P1;PMS_P2;Temp;Humidity;BMP_temperature;BMP_pressure;BME280_temperature;BME280_humidity;BME280_pressure;Samples;Min_cycle;Max_cycle;Signal;HPM_P1;HPM_P2
2022/05/15 00:02:43;;;;;;;29.63;8.20;;;11.60;99.90;;;;;;5089453;28;20048;-76
2022/05/15 00:05:09;;;;;;;26.05;6.82;;;11.50;99.90;;;;;;5073023;28;20544;-76
2022/05/15 00:07:35;;;;;;;20.60;6.22;;;11.50;99.90;;;;;;5086043;28;20044;-76
2022/05/15 00:10:03;;;;;;;22.73;7.85;;;11.50;99.90;;;;;;5066010;28;20067;-76
2022/05/15 00:12:31;;;;;;;19.75;6.60;;;11.50;99.90;;;;;;5083450;28;20048;-76
2022/05/15 00:14:57;;;;;;;22.77;7.38;;;11.50;99.90;;;;;;5068205;28;20071;-77
2022/05/15 00:17:41;;;;;;;22.42;6.38;;;11.50;99.90;;;;;;5089870;28;20052;-76
2022/05/15 00:20:07;;;;;;;26.27;6.57;;;11.40;99.90;;;;;;5087032;28;20078;-76
2022/05/15 00:22:35;;;;;;;22.38;6.47;;;11.40;99.90;;;;;;5087834;28;20090;-76
2022/05/15 00:25:04;;;;;;;27.95;6.82;;;11.40;99.90;;;;;;5072798;28;20051;-76
2022/05/15 00:27:30;;;;;;;24.80;6.72;;;11.40;99.90;;;;;;5089672;28;20040;-76
2022/05/15 00:29:58;;;;;;;27.70;8.13;;;11.40;99.90;;;;;;5091078;28;20551;-76
2022/05/15 00:32:24;;;;;;;16.85;6.38;;;11.40;99.90;;;;;;5072913;28;20115;-76
2022/05/15 00:34:49;;;;;;;21.27;6.53;;;11.30;99.90;;;;;;5089809;28;20165;-77
2022/05/15 00:37:15;;;;;;;19.27;5.82;;;11.30;99.90;;;;;;5072246;28;20048;-77
2022/05/15 00:39:40;;;;;;;23.23;5.70;;;11.30;99.90;;;;;;5090618;28;20558;-77
2022/05/15 00:42:10;;;;;;;21.17;7.20;;;11.20;99.90;;;;;;5088842;28;20114;-77
2022/05/15 00:44:37;;;;;;;22.00;6.30;;;11.20;99.90;;;;;;5090193;28;20120;-77
2022/05/15 00:47:02;;;;;;;18.00;6.00;;;11.20;99.90;;;;;;5069592;28;20119;-77
2022/05/15 00:49:29;;;;;;;22.88;6.72;;;11.20;99.90;;;;;;5070500;28;20174;-76
2022/05/15 00:52:05;;;;;;;22.45;6.55;;;11.20;99.90;;;;;;5079698;28;20494;-77
2022/05/15 00:54:39;;;;;;;24.60;6.45;;;11.20;99.90;;;;;;5089698;28;20058;-76
2022/05/15 00:57:13;;;;;;;23.58;6.22;;;11.20;99.90;;;;;;5088343;28;20051;-76
2022/05/15 00:59:54;;;;;;;27.92;7.25;;;11.10;99.90;;;;;;5087897;28;20055;-77
2022/05/15 01:02:20;;;;;;;30.63;7.63;;;11.20;99.90;;;;;;5089060;28;20054;-76
2022/05/15 01:04:47;;;;;;;20.55;7.55;;;11.10;99.90;;;;;;5069432;28;20464;-77
2022/05/15 01:07:12;;;;;;;23.05;7.47;;;11.10;99.90;;;;;;5062156;28;20141;-77
2022/05/15 01:09:38;;;;;;;23.70;6.75;;;11.10;99.90;;;;;;5070655;28;20040;-77
2022/05/15 01:12:05;;;;;;;19.85;7.68;;;11.10;99.90;;;;;;5070702;28;20059;-77
2022/05/15 01:14:31;;;;;;;30.08;7.65;;;11.10;99.90;;;;;;5071240;28;20180;-77
2022/05/15 01:16:57;;;;;;;24.15;7.03;;;11.00;99.90;;;;;;5089325;28;20071;-77
2022/05/15 01:19:38;;;;;;;18.52;5.95;;;11.00;99.90;;;;;;5070756;28;20059;-77
2022/05/15 01:22:08;;;;;;;21.00;6.83;;;11.00;99.90;;;;;;5068449;28;20052;-77
2022/05/15 01:24:34;;;;;;;19.75;6.68;;;10.90;99.90;;;;;;5070750;28;20711;-77
2022/05/15 01:27:03;;;;;;;26.67;7.75;;;10.90;99.90;;;;;;5067810;28;20048;-77
2022/05/15 01:29:32;;;;;;;17.35;5.88;;;10.90;99.90;;;;;;5068412;28;20032;-76
2022/05/15 01:32:00;;;;;;;22.23;6.13;;;10.80;99.90;;;;;;5072217;28;20185;-77
2022/05/15 01:34:26;;;;;;;20.50;6.90;;;10.80;99.90;;;;;;5089010;28;20440;-76
2022/05/15 01:36:53;;;;;;;15.00;6.22;;;10.80;99.90;;;;;;5089530;28;20189;-76
2022/05/15 01:39:18;;;;;;;20.35;5.60;;;10.80;99.90;;;;;;5086368;28;20043;-77
2022/05/15 01:41:44;;;;;;;25.13;6.53;;;10.80;99.90;;;;;;5088483;28;20044;-75
2022/05/15 01:44:10;;;;;;;17.42;5.55;;;10.80;99.90;;;;;;5085947;28;20042;-75
2022/05/15 01:46:39;;;;;;;24.35;6.32;;;10.80;99.90;;;;;;5086055;28;20059;-75
2022/05/15 01:49:06;;;;;;;20.25;5.65;;;10.80;99.90;;;;;;5072971;28;20032;-75
2022/05/15 01:51:34;;;;;;;14.50;5.35;;;10.70;99.90;;;;;;5089028;28;20070;-75
2022/05/15 01:54:03;;;;;;;16.20;5.97;;;10.70;99.90;;;;;;5071191;28;20381;-74
2022/05/15 01:56:29;;;;;;;17.02;5.80;;;10.70;99.90;;;;;;5087551;28;20053;-75
2022/05/15 01:58:55;;;;;;;21.67;6.68;;;10.70;99.90;;;;;;5069118;28;20452;-75
2022/05/15 02:01:21;;;;;;;16.27;5.40;;;10.60;99.90;;;;;;5088466;28;20040;-74
2022/05/15 02:03:47;;;;;;;19.55;5.20;;;10.60;99.90;;;;;;5068896;28;20109;-75
2022/05/15 02:06:13;;;;;;;16.40;5.47;;;10.60;99.90;;;;;;5071149;28;20036;-75
2022/05/15 02:08:42;;;;;;;17.85;5.25;;;10.60;99.90;;;;;;5069752;28;20035;-75
2022/05/15 02:11:09;;;;;;;21.88;6.10;;;10.60;99.90;;;;;;5071854;28;20048;-75
2022/05/15 02:13:38;;;;;;;21.52;6.20;;;10.60;99.90;;;;;;5085515;28;20484;-76
2022/05/15 02:16:03;;;;;;;22.05;5.93;;;10.60;99.90;;;;;;5054278;28;20046;-75
2022/05/15 02:18:30;;;;;;;15.32;5.15;;;10.60;99.90;;;;;;5088727;28;20571;-76
2022/05/15 02:20:55;;;;;;;23.55;6.10;;;10.50;99.90;;;;;;5087254;28;20044;-75
2022/05/15 02:23:22;;;;;;;20.90;5.93;;;10.50;99.90;;;;;;5069515;28;20043;-75
2022/05/15 02:25:48;;;;;;;15.50;5.03;;;10.50;99.90;;;;;;5088155;28;20536;-75
2022/05/15 02:28:13;;;;;;;20.13;5.93;;;10.40;99.90;;;;;;5069407;28;20036;-75
2022/05/15 02:30:39;;;;;;;9.88;4.78;;;10.50;99.90;;;;;;5087645;28;20036;-76
2022/05/15 02:33:07;;;;;;;13.35;5.00;;;10.40;99.90;;;;;;5088520;28;20040;-76
2022/05/15 02:35:33;;;;;;;20.23;5.18;;;10.30;99.90;;;;;;5092302;28;20527;-75
2022/05/15 02:38:02;;;;;;;16.52;5.75;;;10.30;99.90;;;;;;5087443;28;20044;-76
2022/05/15 02:40:27;;;;;;;22.10;5.43;;;10.30;99.90;;;;;;5088663;28;20078;-75
2022/05/15 02:42:56;;;;;;;21.83;6.38;;;10.30;99.90;;;;;;5068157;28;20514;-76
2022/05/15 02:45:21;;;;;;;20.75;5.40;;;10.20;99.90;;;;;;5069458;28;20093;-76
2022/05/15 02:47:47;;;;;;;14.48;4.75;;;10.20;99.90;;;;;;5088270;28;20040;-76
2022/05/15 02:52:58;;;;;;;18.10;5.25;;;10.20;99.90;;;;;;5084908;28;20058;-75
2022/05/15 02:55:27;;;;;;;22.63;5.47;;;10.10;99.90;;;;;;5066914;28;20460;-75
2022/05/15 02:57:56;;;;;;;17.75;5.65;;;10.10;99.90;;;;;;5075613;28;20055;-75
2022/05/15 03:00:24;;;;;;;12.85;4.88;;;10.10;99.90;;;;;;5085982;28;20032;-76
2022/05/15 03:02:50;;;;;;;19.95;5.70;;;10.10;99.90;;;;;;5057486;28;20164;-75
2022/05/15 03:05:18;;;;;;;18.02;5.25;;;10.10;99.90;;;;;;5087240;28;20036;-75
2022/05/15 03:07:44;;;;;;;18.60;5.35;;;10.10;99.90;;;;;;5066266;28;20047;-75
2022/05/15 03:10:13;;;;;;;18.38;4.53;;;10.00;99.90;;;;;;5087165;28;20117;-75
2022/05/15 03:12:39;;;;;;;16.27;5.07;;;10.10;99.90;;;;;;5065555;28;20059;-76
2022/05/15 03:15:05;;;;;;;11.55;4.88;;;10.00;99.90;;;;;;5070299;28;20048;-76
2022/05/15 03:17:35;;;;;;;11.43;4.18;;;10.00;99.90;;;;;;5090375;28;20058;-76
2022/05/15 03:20:04;;;;;;;12.48;4.63;;;10.10;99.90;;;;;;5084473;28;20047;-76
2022/05/15 03:22:30;;;;;;;10.77;4.30;;;10.00;99.90;;;;;;5088877;28;20054;-75
2022/05/15 03:24:56;;;;;;;13.60;4.25;;;10.00;99.90;;;;;;5085170;28;20138;-75
2022/05/15 03:27:21;;;;;;;15.30;4.47;;;10.00;99.90;;;;;;5086311;28;20044;-75
2022/05/15 03:29:47;;;;;;;19.55;5.00;;;10.00;99.90;;;;;;5090389;28;20036;-75
2022/05/15 03:32:12;;;;;;;11.43;4.40;;;10.00;99.90;;;;;;5073541;28;20486;-75
2022/05/15 03:34:38;;;;;;;17.02;4.90;;;10.00;99.90;;;;;;5091971;28;20043;-75
2022/05/15 03:37:04;;;;;;;14.60;4.70;;;10.00;99.90;;;;;;5073024;28;20067;-75
2022/05/15 03:39:29;;;;;;;11.75;4.45;;;9.90;99.90;;;;;;5089770;28;20121;-76
2022/05/15 03:41:55;;;;;;;12.25;4.30;;;9.90;99.90;;;;;;5087278;28;20119;-75
2022/05/15 03:44:22;;;;;;;16.00;4.70;;;9.90;99.90;;;;;;5091338;28;20059;-75
2022/05/15 03:46:47;;;;;;;11.40;4.55;;;9.90;99.90;;;;;;5090903;28;20190;-75
2022/05/15 03:49:16;;;;;;;15.80;4.55;;;9.90;99.90;;;;;;5070521;28;20048;-76
2022/05/15 03:51:42;;;;;;;18.80;4.45;;;9.90;99.90;;;;;;5091507;28;20054;-76
2022/05/15 03:54:09;;;;;;;18.25;5.13;;;9.80;99.90;;;;;;5071765;28;20051;-76
2022/05/15 03:56:50;;;;;;;16.50;5.00;;;9.90;99.90;;;;;;5072838;28;20048;-76
2022/05/15 03:59:21;;;;;;;15.87;4.70;;;9.80;99.90;;;;;;5091013;28;20048;-76
2022/05/15 04:01:49;;;;;;;19.75;5.25;;;9.80;99.90;;;;;;5090231;28;20372;-76
2022/05/15 04:04:15;;;;;;;13.55;4.93;;;9.80;99.90;;;;;;5090194;28;20596;-76
2022/05/15 04:06:41;;;;;;;15.45;4.93;;;9.80;99.90;;;;;;5089061;28;20055;-76
2022/05/15 04:09:06;;;;;;;20.55;5.05;;;9.80;99.90;;;;;;5088996;28;20048;-76
2022/05/15 04:11:33;;;;;;;13.38;4.15;;;9.90;99.90;;;;;;5072501;28;20048;-76
2022/05/15 04:13:59;;;;;;;15.27;5.32;;;9.80;99.90;;;;;;5088201;28;20049;-76
2022/05/15 04:16:25;;;;;;;17.13;5.68;;;9.80;99.90;;;;;;5091064;28;20094;-76
2022/05/15 04:18:50;;;;;;;21.02;4.78;;;9.80;99.90;;;;;;5090540;28;20098;-76
2022/05/15 04:21:16;;;;;;;16.63;4.88;;;9.80;99.90;;;;;;5090081;28;20082;-76
2022/05/15 04:23:41;;;;;;;22.42;4.53;;;9.80;99.90;;;;;;5086142;28;20065;-75
2022/05/15 04:26:07;;;;;;;13.32;4.22;;;9.80;99.90;;;;;;5069395;28;20055;-76
2022/05/15 04:28:33;;;;;;;17.88;5.78;;;9.80;99.90;;;;;;5088309;28;20446;-76
2022/05/15 04:30:58;;;;;;;12.68;4.75;;;9.90;99.90;;;;;;5071956;28;20051;-76
2022/05/15 04:33:24;;;;;;;19.20;5.53;;;9.90;99.90;;;;;;5071024;28;20512;-76
2022/05/15 04:35:50;;;;;;;16.90;4.10;;;9.90;99.90;;;;;;5072039;28;20162;-76
2022/05/15 04:38:15;;;;;;;9.45;3.55;;;9.90;99.90;;;;;;5071214;28;20047;-76
2022/05/15 04:40:41;;;;;;;19.80;3.53;;;10.00;99.90;;;;;;5086763;28;20444;-76
2022/05/15 04:43:07;;;;;;;10.32;3.17;;;10.00;99.90;;;;;;5090981;28;20090;-76
2022/05/15 04:45:32;;;;;;;12.10;3.72;;;10.00;99.90;;;;;;5088697;28;20134;-76
2022/05/15 04:47:58;;;;;;;12.45;3.10;;;10.00;99.90;;;;;;5070672;28;20052;-75
2022/05/15 04:50:24;;;;;;;6.95;2.72;;;10.10;99.90;;;;;;5084248;28;20058;-76
2022/05/15 04:52:52;;;;;;;14.05;2.92;;;10.10;99.90;;;;;;5050242;28;20049;-76
2022/05/15 04:55:17;;;;;;;8.32;3.20;;;10.10;99.90;;;;;;5042769;28;20059;-77
2022/05/15 04:57:43;;;;;;;12.52;3.10;;;10.10;99.90;;;;;;5050067;28;20052;-76
2022/05/15 05:00:13;;;;;;;12.75;4.00;;;10.20;99.90;;;;;;5075523;28;20132;-76
2022/05/15 05:02:39;;;;;;;13.98;3.92;;;10.20;99.90;;;;;;5070513;28;20080;-76
2022/05/15 05:05:05;;;;;;;27.38;4.68;;;10.20;99.90;;;;;;5071006;28;20481;-76
2022/05/15 05:07:31;;;;;;;13.25;4.72;;;10.20;99.90;;;;;;5043247;28;20140;-76
2022/05/15 05:10:00;;;;;;;12.98;3.80;;;10.20;99.90;;;;;;5052391;28;20043;-77
2022/05/15 05:12:28;;;;;;;14.60;4.40;;;10.30;99.90;;;;;;5048435;28;20045;-76
2022/05/15 05:14:58;;;;;;;13.25;4.32;;;10.30;99.90;;;;;;5077599;28;20043;-80
2022/05/15 05:17:29;;;;;;;12.90;4.55;;;10.40;99.90;;;;;;5069562;28;20048;-77
2022/05/15 05:19:54;;;;;;;13.35;4.80;;;10.40;99.90;;;;;;5023363;28;20507;-85
2022/05/15 05:22:20;;;;;;;17.88;4.63;;;10.40;99.90;;;;;;5070691;28;20037;-86
2022/05/15 05:24:45;;;;;;;18.40;5.68;;;10.40;99.90;;;;;;5059893;28;20059;-86
2022/05/15 05:27:11;;;;;;;24.35;5.72;;;10.50;99.90;;;;;;5048518;28;20048;-85
2022/05/15 05:29:36;;;;;;;20.05;5.13;;;10.60;99.90;;;;;;5051806;28;20040;-85
2022/05/15 05:32:02;;;;;;;11.38;4.72;;;10.60;99.90;;;;;;5069229;28;20123;-84
2022/05/15 05:34:28;;;;;;;22.05;4.97;;;10.70;99.90;;;;;;5069362;28;20049;-85
2022/05/15 05:36:54;;;;;;;24.30;5.40;;;10.70;99.90;;;;;;5054045;28;20106;-85
2022/05/15 05:39:20;;;;;;;15.40;5.10;;;10.80;99.90;;;;;;5037707;28;20075;-84
2022/05/15 05:41:46;;;;;;;25.38;5.65;;;10.90;99.90;;;;;;5066798;28;20080;-84
2022/05/15 05:44:11;;;;;;;18.17;5.28;;;11.00;99.90;;;;;;5051450;28;20174;-87
2022/05/15 05:46:37;;;;;;;17.23;6.40;;;11.10;99.90;;;;;;5069395;28;20075;-86
2022/05/15 05:49:03;;;;;;;20.67;6.97;;;11.10;99.90;;;;;;5077066;28;20531;-86
2022/05/15 05:51:29;;;;;;;24.15;5.63;;;11.20;99.90;;;;;;5051967;28;20502;-85
2022/05/15 05:53:54;;;;;;;22.60;5.85;;;11.30;99.90;;;;;;5049871;28;20135;-85
2022/05/15 05:56:20;;;;;;;18.92;5.82;;;11.30;99.90;;;;;;5044343;28;20202;-84
2022/05/15 05:58:45;;;;;;;19.48;5.75;;;11.40;99.90;;;;;;5047896;28;20491;-85
2022/05/15 06:01:11;;;;;;;26.85;6.30;;;11.50;99.90;;;;;;5050518;28;20032;-88
2022/05/15 06:06:21;;;;;;;26.00;6.82;;;11.60;99.90;;;;;;5067528;28;20055;-88
2022/05/15 06:08:47;;;;;;;17.33;5.28;;;11.60;99.90;;;;;;5040566;28;20044;-86
2022/05/15 06:11:12;;;;;;;20.92;5.90;;;11.70;99.90;;;;;;5051367;28;20516;-86
2022/05/15 06:13:39;;;;;;;23.45;6.00;;;11.80;99.90;;;;;;5050708;28;20048;-86
2022/05/15 06:16:08;;;;;;;21.88;6.05;;;11.90;99.90;;;;;;5063619;28;20036;-88
2022/05/15 06:18:34;;;;;;;32.97;6.82;;;11.90;99.90;;;;;;5050556;28;20075;-85
2022/05/15 06:21:00;;;;;;;17.33;4.57;;;12.00;99.90;;;;;;5047578;28;20109;-85
2022/05/15 06:23:25;;;;;;;22.33;6.00;;;12.10;99.90;;;;;;5048814;28;20551;-85
2022/05/15 06:25:51;;;;;;;19.60;5.60;;;12.20;99.90;;;;;;5064508;28;20087;-89
2022/05/15 06:28:17;;;;;;;21.55;6.05;;;12.30;99.90;;;;;;5042539;28;20043;-86
2022/05/15 06:30:42;;;;;;;29.25;6.20;;;12.30;99.90;;;;;;5062148;28;20047;-88
2022/05/15 06:33:09;;;;;;;28.23;6.22;;;12.40;99.90;;;;;;5051663;28;20045;-89
2022/05/15 06:35:35;;;;;;;25.40;5.15;;;12.50;99.90;;;;;;5067307;28;20116;-85
2022/05/15 06:38:05;;;;;;;22.88;6.18;;;12.50;99.90;;;;;;5049476;28;20118;-86
2022/05/15 06:40:32;;;;;;;24.02;6.38;;;12.60;99.90;;;;;;5039525;28;20038;-85
2022/05/15 06:42:57;;;;;;;22.98;5.13;;;12.70;99.90;;;;;;5034241;28;20043;-87
2022/05/15 06:45:25;;;;;;;21.63;5.28;;;12.80;99.90;;;;;;5041076;28;20127;-86
2022/05/15 06:47:50;;;;;;;18.15;4.80;;;12.90;99.90;;;;;;5060372;28;20048;-85
2022/05/15 06:50:16;;;;;;;25.27;6.35;;;12.90;99.90;;;;;;5051195;28;20060;-85
2022/05/15 06:52:45;;;;;;;24.13;5.63;;;13.00;99.90;;;;;;5028037;28;20057;-87
2022/05/15 06:55:14;;;;;;;19.13;5.20;;;13.00;99.90;;;;;;5047672;28;20043;-82
2022/05/15 06:57:41;;;;;;;22.40;5.85;;;13.10;99.90;;;;;;5043939;28;20047;-82
2022/05/15 07:00:11;;;;;;;21.38;5.43;;;13.20;99.90;;;;;;5050599;28;20063;-85
2022/05/15 07:02:37;;;;;;;23.65;5.68;;;13.20;99.90;;;;;;5056467;28;20167;-85
2022/05/15 07:05:04;;;;;;;17.55;5.10;;;13.30;99.90;;;;;;5046654;28;20059;-83
2022/05/15 07:07:30;;;;;;;22.95;4.57;;;13.40;99.90;;;;;;5067174;28;20078;-83
2022/05/15 07:09:56;;;;;;;24.92;5.95;;;13.40;99.90;;;;;;5065010;28;20114;-83
2022/05/15 07:12:24;;;;;;;19.40;4.80;;;13.50;99.90;;;;;;5027469;28;20457;-85
2022/05/15 07:14:49;;;;;;;18.25;4.85;;;13.60;99.90;;;;;;5043167;28;20220;-84
2022/05/15 07:17:15;;;;;;;30.50;5.40;;;13.60;99.90;;;;;;5048142;28;20051;-83
2022/05/15 07:19:44;;;;;;;31.75;5.50;;;13.70;99.90;;;;;;5067299;28;20059;-85
2022/05/15 07:22:10;;;;;;;24.45;4.97;;;13.80;99.90;;;;;;5065920;28;20049;-88
2022/05/15 07:24:38;;;;;;;26.27;5.32;;;13.80;99.90;;;;;;5052100;28;20461;-87
2022/05/15 07:27:06;;;;;;;21.10;4.60;;;13.90;99.90;;;;;;5061387;28;20408;-89
2022/05/15 07:29:33;;;;;;;18.77;4.57;;;14.00;99.90;;;;;;5084248;28;20041;-87
2022/05/15 07:31:59;;;;;;;23.55;5.15;;;14.00;99.90;;;;;;5060330;28;20087;-88
2022/05/15 07:34:27;;;;;;;18.02;4.30;;;14.10;99.90;;;;;;5056311;28;20373;-91
2022/05/15 07:36:52;;;;;;;21.55;4.95;;;14.10;99.90;;;;;;5057345;28;20045;-93
2022/05/15 07:39:20;;;;;;;23.23;4.97;;;14.20;99.90;;;;;;5054107;28;20048;-90
2022/05/15 07:41:46;;;;;;;24.42;4.80;;;14.30;99.90;;;;;;5053827;28;20076;-96
2022/05/15 07:44:11;;;;;;;21.55;4.28;;;14.30;99.90;;;;;;5069777;28;20507;-90
2022/05/15 07:46:37;;;;;;;24.40;4.78;;;14.30;99.90;;;;;;5054582;28;20037;-88
2022/05/15 07:49:03;;;;;;;26.73;4.32;;;14.40;99.90;;;;;;5068493;28;20102;-79
2022/05/15 07:51:32;;;;;;;20.35;3.83;;;14.50;99.90;;;;;;5081921;28;20407;-78
2022/05/15 07:53:58;;;;;;;17.42;4.55;;;14.50;99.90;;;;;;5077773;28;20036;-78
2022/05/15 07:56:24;;;;;;;19.02;4.03;;;14.60;99.90;;;;;;5069301;28;20048;-79
2022/05/15 07:58:49;;;;;;;19.33;4.65;;;14.70;99.90;;;;;;5084688;28;20044;-78
2022/05/15 08:01:15;;;;;;;23.02;4.70;;;14.80;99.90;;;;;;5070233;28;20367;-78
2022/05/15 08:03:44;;;;;;;22.77;5.43;;;14.80;99.90;;;;;;5085255;28;20052;-79
2022/05/15 08:09:03;;;;;;;21.13;4.60;;;15.00;99.90;;;;;;5068400;28;20056;-78
2022/05/15 08:11:29;;;;;;;20.30;3.85;;;15.00;99.90;;;;;;5092431;28;20040;-79
2022/05/15 08:13:56;;;;;;;23.33;4.30;;;15.10;99.90;;;;;;5081927;28;20044;-78
2022/05/15 08:16:23;;;;;;;18.45;4.35;;;15.10;99.90;;;;;;5091445;28;20051;-79
2022/05/15 08:24:23;;;;;;;16.63;3.83;;;15.30;99.90;;;;;;5092354;28;20048;-79
2022/05/15 08:26:50;;;;;;;16.88;4.47;;;15.40;99.90;;;;;;5083715;28;20036;-78
2022/05/15 08:29:16;;;;;;;15.25;4.10;;;15.40;99.90;;;;;;5063194;28;20035;-79
2022/05/15 08:31:42;;;;;;;16.60;3.97;;;15.50;99.90;;;;;;5073505;28;20044;-79
2022/05/15 08:34:11;;;;;;;13.55;3.28;;;15.60;99.90;;;;;;5090067;28;20090;-78
2022/05/15 08:36:39;;;;;;;19.40;3.75;;;15.70;99.90;;;;;;5084588;28;20045;-78
2022/05/15 08:39:05;;;;;;;15.55;3.72;;;15.90;99.90;;;;;;5065858;28;20103;-78
2022/05/15 08:41:30;;;;;;;18.23;3.83;;;15.80;99.90;;;;;;5069301;28;20068;-77
2022/05/15 08:44:11;;;;;;;13.93;3.50;;;15.80;99.90;;;;;;5071000;28;20043;-79
2022/05/15 08:46:48;;;;;;;17.77;4.78;;;15.80;99.90;;;;;;5083381;28;20054;-78
2022/05/15 08:49:47;;;;;;;13.15;3.42;;;15.90;99.90;;;;;;5088858;28;20421;-78
2022/05/15 08:52:34;;;;;;;14.57;3.33;;;16.00;99.90;;;;;;5094635;28;20478;-79
2022/05/15 08:55:15;;;;;;;15.00;3.25;;;16.10;99.90;;;;;;5091439;28;20054;-78
2022/05/15 08:57:53;;;;;;;15.90;3.28;;;16.10;99.90;;;;;;5064479;28;20048;-77
2022/05/15 09:00:25;;;;;;;16.73;3.60;;;16.20;99.90;;;;;;5062989;28;20119;-78
2022/05/15 09:03:03;;;;;;;18.45;3.58;;;16.20;99.90;;;;;;5051531;28;20060;-77
2022/05/15 09:05:29;;;;;;;13.93;3.00;;;16.30;99.90;;;;;;5058236;28;20495;-78
2022/05/15 09:08:20;;;;;;;17.85;3.70;;;16.40;99.90;;;;;;5086303;28;20355;-77
2022/05/15 09:11:09;;;;;;;19.77;3.37;;;16.40;99.90;;;;;;5090284;28;20086;-77
2022/05/15 09:13:39;;;;;;;17.70;3.53;;;16.50;99.90;;;;;;5072302;28;20052;-77
2022/05/15 09:16:22;;;;;;;14.07;4.20;;;16.60;99.90;;;;;;5090599;28;20040;-77
2022/05/15 09:18:48;;;;;;;10.70;3.35;;;16.60;99.90;;;;;;5089249;28;20383;-76
2022/05/15 09:21:15;;;;;;;15.95;3.20;;;16.70;99.90;;;;;;5091067;28;20044;-78
2022/05/15 09:23:47;;;;;;;14.50;3.30;;;16.70;99.90;;;;;;5071738;28;20048;-78
2022/05/15 09:26:43;;;;;;;12.65;3.33;;;16.80;99.90;;;;;;5086936;28;20553;-77
2022/05/15 09:29:18;;;;;;;15.23;4.35;;;16.90;99.90;;;;;;5074865;28;20515;-77
2022/05/15 09:31:44;;;;;;;19.98;4.10;;;16.90;99.90;;;;;;5076023;28;20368;-77
2022/05/15 09:34:26;;;;;;;20.25;2.92;;;16.90;99.90;;;;;;5092539;28;20574;-78
2022/05/15 09:38:26;;;;;;;16.23;3.42;;;17.00;99.90;;;;;;5089850;28;20044;-78
2022/05/15 09:39:46;;;;;;;18.80;4.82;;;17.00;99.90;;;;;;5071696;28;20070;-79
2022/05/15 09:44:59;;;;;;;12.57;3.65;;;17.10;99.90;;;;;;5061019;28;20517;-79
2022/05/15 09:47:38;;;;;;;15.82;2.95;;;17.20;99.90;;;;;;5089805;28;20348;-78
2022/05/15 09:50:08;;;;;;;13.13;3.45;;;17.20;99.90;;;;;;5090056;28;20046;-79
2022/05/15 09:52:38;;;;;;;15.27;3.05;;;17.30;99.90;;;;;;5070891;28;20083;-78
2022/05/15 09:55:19;;;;;;;13.45;3.25;;;17.40;99.90;;;;;;5071825;28;20055;-79
2022/05/15 09:57:58;;;;;;;14.13;3.30;;;17.40;99.90;;;;;;5065931;28;20052;-78
2022/05/15 10:00:27;;;;;;;10.50;2.78;;;17.50;99.90;;;;;;5069406;28;20036;-77
2022/05/15 10:02:54;;;;;;;12.02;3.63;;;17.50;99.90;;;;;;5068226;28;20492;-78
2022/05/15 10:05:22;;;;;;;12.38;3.03;;;17.60;99.90;;;;;;5068556;28;20048;-77
2022/05/15 10:08:10;;;;;;;12.00;3.60;;;17.50;99.90;;;;;;5067043;28;20040;-77
2022/05/15 10:11:00;;;;;;;11.27;2.78;;;17.60;99.40;;;;;;5068330;28;20044;-78
2022/05/15 10:13:40;;;;;;;13.45;3.22;;;17.70;99.40;;;;;;5081417;28;20040;-78
2022/05/15 10:16:21;;;;;;;13.60;3.23;;;17.70;99.30;;;;;;5084119;28;20078;-77
2022/05/15 10:19:00;;;;;;;16.98;4.22;;;17.90;99.20;;;;;;5069311;28;20449;-78
2022/05/15 10:21:41;;;;;;;15.95;3.55;;;17.90;99.00;;;;;;5069304;28;20052;-77
2022/05/15 10:24:28;;;;;;;14.77;3.60;;;17.90;99.10;;;;;;5069581;28;20047;-78
2022/05/15 10:27:16;;;;;;;12.93;3.03;;;18.00;98.80;;;;;;5060051;28;20081;-77
2022/05/15 10:29:56;;;;;;;11.25;3.50;;;18.00;98.80;;;;;;5049134;28;20053;-77
2022/05/15 10:32:39;;;;;;;12.75;3.35;;;18.10;98.30;;;;;;5049787;28;20032;-78
2022/05/15 10:35:07;;;;;;;14.82;3.15;;;18.20;98.10;;;;;;5047641;28;20053;-78
2022/05/15 10:38:21;;;;;;;13.02;3.05;;;18.20;97.70;;;;;;5060175;28;20547;-77
2022/05/15 10:40:58;;;;;;;18.58;2.97;;;18.20;97.60;;;;;;5085056;28;20092;-78
2022/05/15 10:43:53;;;;;;;11.32;3.25;;;18.30;97.20;;;;;;5067519;28;20127;-77
2022/05/15 10:46:43;;;;;;;15.23;3.78;;;18.30;96.90;;;;;;5058236;28;20059;-80
2022/05/15 10:49:39;;;;;;;13.32;3.08;;;18.40;96.90;;;;;;5052854;28;20109;-79
2022/05/15 10:52:13;;;;;;;12.15;2.95;;;18.50;96.90;;;;;;5027331;28;20097;-77
2022/05/15 10:58:02;;;;;;;;;;;18.70;96.50;;;;;;5068577;28;20080;-77
2022/05/15 11:00:41;;;;;;;15.80;3.10;;;18.80;96.80;;;;;;5062261;28;20007;-78
2022/05/15 11:03:32;;;;;;;10.73;2.97;;;18.90;96.30;;;;;;5060470;28;20056;-79
2022/05/15 11:06:03;;;;;;;12.48;3.28;;;18.90;95.90;;;;;;5037913;28;20040;-80
2022/05/15 11:08:35;;;;;;;12.05;2.97;;;19.00;95.40;;;;;;5063271;28;20114;-78
2022/05/15 11:11:01;;;;;;;13.15;3.05;;;19.10;95.10;;;;;;5064924;28;20116;-77
2022/05/15 11:13:43;;;;;;;8.77;2.55;;;19.20;94.50;;;;;;5067259;28;20427;-81
2022/05/15 11:16:24;;;;;;;9.52;2.88;;;19.30;94.50;;;;;;5048135;28;20358;-78
2022/05/15 11:19:09;;;;;;;12.57;3.50;;;19.40;93.90;;;;;;5049199;28;20164;-76
2022/05/15 11:22:03;;;;;;;10.75;3.10;;;19.40;93.80;;;;;;5067885;28;20126;-76
2022/05/15 11:24:42;;;;;;;7.43;2.10;;;19.50;93.60;;;;;;5039845;28;20040;-75
2022/05/15 11:27:24;;;;;;;9.15;2.15;;;19.60;93.20;;;;;;5064925;28;20129;-76
2022/05/15 11:29:53;;;;;;;9.25;2.30;;;19.70;93.30;;;;;;5067915;28;20059;-76
2022/05/15 11:32:39;;;;;;;11.05;2.08;;;19.80;93.20;;;;;;5066049;28;20064;-76
2022/05/15 11:35:17;;;;;;;12.18;2.80;;;20.00;93.10;;;;;;5048051;28;20060;-75
2022/05/15 11:38:08;;;;;;;11.32;2.50;;;19.90;92.70;;;;;;5060813;28;20110;-74
2022/05/15 11:40:51;;;;;;;9.57;2.75;;;20.20;91.70;;;;;;5050142;28;20507;-74
2022/05/15 11:43:26;;;;;;;15.50;2.72;;;20.30;91.60;;;;;;5066447;28;20558;-75
2022/05/15 11:46:09;;;;;;;8.10;2.67;;;20.40;91.00;;;;;;5029716;28;20044;-75
2022/05/15 11:48:38;;;;;;;11.65;2.30;;;20.50;90.70;;;;;;5064907;28;20040;-76
2022/05/15 11:51:13;;;;;;;9.07;2.28;;;20.50;90.60;;;;;;5070755;28;20044;-75
2022/05/15 11:54:03;;;;;;;10.75;2.78;;;20.60;90.40;;;;;;5060825;28;20122;-75
2022/05/15 11:56:40;;;;;;;12.35;2.45;;;20.80;90.50;;;;;;5070472;28;20560;-75
2022/05/15 11:59:27;;;;;;;8.40;1.98;;;20.80;89.90;;;;;;5048222;28;20052;-76
2022/05/15 12:02:22;;;;;;;10.32;2.10;;;20.90;89.70;;;;;;5050283;28;20052;-75
2022/05/15 12:04:58;;;;;;;7.90;2.15;;;21.00;87.30;;;;;;5062323;28;20056;-76
2022/05/15 12:07:45;;;;;;;8.18;2.30;;;21.10;87.40;;;;;;5038557;28;20472;-75
2022/05/15 12:10:21;;;;;;;12.30;2.47;;;21.20;86.60;;;;;;5072553;28;20370;-76
2022/05/15 12:13:00;;;;;;;7.63;2.17;;;21.20;85.30;;;;;;5065803;28;20097;-76
2022/05/15 12:15:35;;;;;;;7.47;2.22;;;21.20;84.70;;;;;;5049795;28;20040;-75
2022/05/15 12:18:30;;;;;;;8.27;2.30;;;21.10;84.60;;;;;;5069266;28;20040;-76
2022/05/15 12:20:57;;;;;;;10.98;2.28;;;21.20;82.90;;;;;;5041659;28;20488;-75
2022/05/15 12:24:26;;;;;;;11.20;2.40;;;21.20;83.40;;;;;;5052447;28;20048;-75
2022/05/15 12:26:59;;;;;;;7.50;2.63;;;21.30;82.90;;;;;;5055466;28;20444;-76
2022/05/15 12:29:36;;;;;;;10.07;2.42;;;21.40;83.80;;;;;;5021542;28;20059;-76
2022/05/15 12:32:09;;;;;;;11.75;2.08;;;21.50;82.80;;;;;;5042004;28;20065;-76
2022/05/15 12:34:45;;;;;;;62.85;5.65;;;21.60;82.50;;;;;;5049336;28;20249;-75
2022/05/15 12:37:17;;;;;;;18.35;2.97;;;21.60;82.40;;;;;;5052061;28;20040;-75
2022/05/15 12:39:46;;;;;;;10.95;2.75;;;21.80;81.80;;;;;;5058766;28;20086;-76
2022/05/15 12:42:34;;;;;;;32.45;3.65;;;21.70;81.20;;;;;;5058738;28;20346;-76
2022/05/15 12:45:07;;;;;;;13.93;2.60;;;21.80;81.70;;;;;;5046131;28;20429;-75
2022/05/15 12:47:33;;;;;;;11.73;2.65;;;21.80;81.00;;;;;;5070974;28;20166;-76
2022/05/15 12:50:04;;;;;;;11.00;3.50;;;21.90;79.80;;;;;;5070805;28;20116;-75
2022/05/15 12:52:33;;;;;;;9.35;2.50;;;21.90;79.00;;;;;;5067773;28;20135;-75
2022/05/15 12:55:09;;;;;;;8.90;2.60;;;22.10;78.80;;;;;;5065668;28;20319;-76
2022/05/15 12:57:47;;;;;;;10.60;2.50;;;22.10;78.30;;;;;;5083378;28;20044;-75
2022/05/15 13:00:16;;;;;;;11.38;2.70;;;22.20;78.10;;;;;;5090711;28;20036;-75
2022/05/15 13:02:42;;;;;;;7.57;2.35;;;22.30;76.90;;;;;;5058043;28;20093;-76
2022/05/15 13:05:22;;;;;;;10.20;2.75;;;22.40;76.10;;;;;;5062561;28;20037;-76
2022/05/15 13:07:57;;;;;;;11.45;3.22;;;22.40;76.20;;;;;;5070799;28;20063;-76
2022/05/15 13:10:24;;;;;;;10.55;2.85;;;22.40;76.10;;;;;;5050638;28;20484;-76
2022/05/15 13:12:55;;;;;;;10.43;2.35;;;22.40;74.80;;;;;;5052179;28;20052;-75
2022/05/15 13:15:26;;;;;;;10.38;2.88;;;22.50;74.80;;;;;;5050457;28;20434;-75
2022/05/15 13:17:54;;;;;;;11.88;2.47;;;22.50;74.40;;;;;;5086438;28;20144;-76